createdAt,value
2023-03-11T00:02:08.938Z,80.15
2023-03-11T00:04:40.577Z,78.54
2023-03-11T00:07:12.212Z,78.57
2023-03-11T00:09:43.798Z,78.83
2023-03-11T00:12:15.407Z,79.58
2023-03-11T00:14:47.118Z,78.45
2023-03-11T00:17:18.751Z,77.73
2023-03-11T00:19:50.355Z,76.86
2023-03-11T00:22:21.930Z,76.20
2023-03-11T00:24:53.520Z,77.47
2023-03-11T00:27:25.308Z,76.30
2023-03-11T00:29:56.893Z,75.09
2023-03-11T00:32:28.497Z,75.63
2023-03-11T00:35:00.147Z,75.94
2023-03-11T00:37:32.152Z,75.21
2023-03-11T00:40:04.092Z,74.60
2023-03-11T00:42:35.732Z,74.62
2023-03-11T00:45:08.414Z,73.15
2023-03-11T00:47:40.552Z,75.40
2023-03-11T00:50:17.552Z,76.26
2023-03-11T00:52:50.793Z,75.04
2023-03-11T00:55:31.754Z,75.26
2023-03-11T00:58:06.954Z,75.92
2023-03-11T01:00:48.578Z,77.17
2023-03-11T01:03:20.264Z,77.70
2023-03-11T01:05:52.177Z,77.29
2023-03-11T01:08:23.836Z,77.03
2023-03-11T01:10:55.689Z,77.47
2023-03-11T01:13:29.327Z,76.99
2023-03-11T01:16:01.600Z,75.60
2023-03-11T01:18:33.635Z,75.01
2023-03-11T01:21:05.630Z,76.76
2023-03-11T01:23:37.359Z,76.88
2023-03-11T01:26:09.000Z,76.33
2023-03-11T01:28:40.628Z,75.42
2023-03-11T01:31:12.968Z,75.20
2023-03-11T01:33:44.680Z,75.90
2023-03-11T01:36:16.993Z,76.79
2023-03-11T01:38:48.603Z,74.73
2023-03-11T01:41:20.239Z,75.15
2023-03-11T01:43:54.118Z,74.50
2023-03-11T01:46:56.896Z,74.67
2023-03-11T01:49:33.212Z,75.45
2023-03-11T01:52:09.628Z,74.96
2023-03-11T01:54:51.722Z,76.47
2023-03-11T01:57:23.561Z,77.00
2023-03-11T02:00:00.415Z,75.84
2023-03-11T02:02:41.877Z,75.36
2023-03-11T02:05:14.236Z,77.60
2023-03-11T02:07:47.069Z,75.57
2023-03-11T02:10:22.098Z,75.13
2023-03-11T02:12:53.879Z,74.24
2023-03-11T02:15:30.376Z,74.78
2023-03-11T02:18:06.309Z,73.11
2023-03-11T02:21:15.449Z,73.48
2023-03-11T02:24:17.307Z,73.73
2023-03-11T02:27:06.826Z,75.26
2023-03-11T02:29:41.711Z,76.39
2023-03-11T02:32:14.821Z,76.49
2023-03-11T02:34:48.785Z,75.57
2023-03-11T02:37:20.634Z,77.23
2023-03-11T02:40:38.107Z,77.21
2023-03-11T02:43:14.486Z,77.21
2023-03-11T02:45:49.486Z,77.48
2023-03-11T02:48:22.243Z,76.99
2023-03-11T02:50:54.017Z,75.78
2023-03-11T02:53:31.918Z,75.71
2023-03-11T02:56:03.854Z,73.75
2023-03-11T02:58:35.701Z,74.46
2023-03-11T03:01:07.456Z,74.43
2023-03-11T03:03:40.100Z,74.01
2023-03-11T03:06:12.045Z,73.66
2023-03-11T03:08:43.649Z,72.85
2023-03-11T03:11:15.464Z,71.71
2023-03-11T03:13:47.201Z,71.34
2023-03-11T03:16:18.899Z,72.05
2023-03-11T03:18:50.586Z,72.28
2023-03-11T03:21:22.239Z,70.44
2023-03-11T03:23:53.976Z,70.93
2023-03-11T03:26:25.638Z,71.29
2023-03-11T03:28:57.476Z,70.50
2023-03-11T03:31:29.324Z,69.94
2023-03-11T03:34:02.504Z,70.47
2023-03-11T03:36:34.659Z,70.02
2023-03-11T03:39:09.017Z,68.75
2023-03-11T03:41:42.318Z,68.91
2023-03-11T03:44:15.030Z,69.72
2023-03-11T03:46:46.621Z,69.41
2023-03-11T03:49:18.340Z,68.78
2023-03-11T03:51:50.402Z,68.98
2023-03-11T03:54:33.503Z,70.96
2023-03-11T03:57:06.214Z,72.55
2023-03-11T03:59:43.773Z,72.46
2023-03-11T04:02:15.548Z,71.33
2023-03-11T04:04:47.757Z,71.57
2023-03-11T04:07:19.960Z,74.34
2023-03-11T04:09:51.932Z,76.30
2023-03-11T04:12:23.561Z,74.85
2023-03-11T04:14:55.642Z,72.63
2023-03-11T04:17:27.895Z,72.85
2023-03-11T04:20:00.776Z,71.26
2023-03-11T04:22:32.961Z,70.88
2023-03-11T04:25:05.035Z,71.55
2023-03-11T04:27:37.796Z,70.70
2023-03-11T04:30:11.831Z,69.74
2023-03-11T04:32:43.470Z,70.13
2023-03-11T04:35:15.984Z,70.81
2023-03-11T04:37:47.721Z,71.34
2023-03-11T04:40:19.525Z,70.76
2023-03-11T04:42:53.617Z,70.97
2023-03-11T04:45:25.381Z,70.45
2023-03-11T04:48:00.249Z,71.23
2023-03-11T04:50:32.583Z,70.12
2023-03-11T04:53:04.521Z,71.26
2023-03-11T04:55:36.531Z,71.40
2023-03-11T04:58:08.239Z,71.66
2023-03-11T05:00:42.091Z,72.61
2023-03-11T05:03:16.775Z,70.14
2023-03-11T05:05:48.518Z,70.06
2023-03-11T05:08:20.280Z,70.25
2023-03-11T05:10:52.805Z,69.10
2023-03-11T05:13:25.186Z,69.08
2023-03-11T05:15:57.956Z,69.52
2023-03-11T05:18:30.382Z,69.21
2023-03-11T05:21:01.997Z,69.32
2023-03-11T05:23:36.439Z,69.35
2023-03-11T05:26:08.271Z,69.41
2023-03-11T05:28:41.910Z,69.53
2023-03-11T05:31:13.552Z,69.40
2023-03-11T05:33:45.795Z,69.26
2023-03-11T05:36:18.817Z,69.34
2023-03-11T05:38:50.948Z,68.93
2023-03-11T05:41:22.870Z,69.72
2023-03-11T05:43:54.536Z,70.20
2023-03-11T05:46:26.581Z,69.66
2023-03-11T05:49:01.952Z,69.12
2023-03-11T05:51:33.599Z,68.98
2023-03-11T05:54:05.523Z,69.68
2023-03-11T05:56:45.153Z,69.92
2023-03-11T05:59:18.029Z,69.85
2023-03-11T06:01:53.226Z,69.19
2023-03-11T06:04:26.415Z,70.03
2023-03-11T06:06:58.623Z,69.42
2023-03-11T06:09:33.912Z,71.08
2023-03-11T06:12:06.001Z,69.67
2023-03-11T06:14:53.619Z,70.33
2023-03-11T06:17:25.623Z,69.93
2023-03-11T06:19:57.559Z,70.25
2023-03-11T06:22:29.998Z,69.04
2023-03-11T06:25:01.589Z,70.34
2023-03-11T06:27:36.121Z,71.21
2023-03-11T06:30:09.174Z,71.99
2023-03-11T06:32:47.757Z,70.18
2023-03-11T06:35:19.521Z,70.22
2023-03-11T06:37:51.336Z,71.14
2023-03-11T06:40:22.961Z,72.53
2023-03-11T06:42:54.606Z,72.66
2023-03-11T06:45:29.746Z,76.80
2023-03-11T06:48:01.877Z,78.36
2023-03-11T06:50:34.726Z,77.05
2023-03-11T06:53:08.245Z,79.08
2023-03-11T06:55:40.981Z,77.62
2023-03-11T06:58:13.086Z,77.25
2023-03-11T07:00:44.865Z,75.83
2023-03-11T07:03:16.708Z,75.40
2023-03-11T07:05:52.904Z,76.98
2023-03-11T07:08:25.873Z,76.25
2023-03-11T07:11:09.823Z,74.60
2023-03-11T07:13:41.753Z,73.17
2023-03-11T07:16:18.024Z,73.62
2023-03-11T07:18:52.172Z,71.69
2023-03-11T07:21:24.823Z,71.44
2023-03-11T07:23:59.499Z,71.27
2023-03-11T07:26:33.608Z,72.65
2023-03-11T07:29:05.439Z,72.88
2023-03-11T07:31:37.842Z,71.53
2023-03-11T07:34:12.785Z,70.53
2023-03-11T07:36:44.435Z,70.69
2023-03-11T07:39:18.863Z,70.22
2023-03-11T07:41:50.670Z,70.03
2023-03-11T07:44:23.390Z,70.12
2023-03-11T07:46:54.986Z,69.91
2023-03-11T07:49:26.641Z,69.58
2023-03-11T07:51:58.437Z,69.22
2023-03-11T07:54:30.046Z,70.73
2023-03-11T07:57:01.643Z,71.67
2023-03-11T07:59:33.270Z,70.90
2023-03-11T08:02:04.963Z,70.88
2023-03-11T08:04:36.595Z,71.09
2023-03-11T08:07:08.366Z,72.47
2023-03-11T08:09:40.035Z,71.21
2023-03-11T08:12:11.729Z,73.97
2023-03-11T08:14:43.334Z,75.37
2023-03-11T08:17:14.981Z,75.72
2023-03-11T08:19:48.823Z,75.68
2023-03-11T08:22:20.553Z,74.55
2023-03-11T08:24:53.098Z,75.75
2023-03-11T08:27:24.787Z,77.28
2023-03-11T08:29:56.456Z,77.83
2023-03-11T08:32:28.139Z,76.77
2023-03-11T08:34:59.988Z,77.05
2023-03-11T08:37:31.774Z,77.15
2023-03-11T08:40:04.363Z,76.13
2023-03-11T08:42:37.187Z,77.28
2023-03-11T08:45:09.980Z,76.93
2023-03-11T08:47:42.257Z,77.43
2023-03-11T08:50:17.439Z,78.44
2023-03-11T08:52:49.162Z,78.86
2023-03-11T08:55:20.878Z,75.88
2023-03-11T08:57:52.518Z,77.43
2023-03-11T09:00:24.173Z,78.95
2023-03-11T09:02:55.816Z,77.78
2023-03-11T09:05:27.589Z,77.92
2023-03-11T09:07:59.263Z,78.25
2023-03-11T09:10:30.915Z,79.00
2023-03-11T09:13:02.521Z,78.44
2023-03-11T09:15:34.166Z,77.06
2023-03-11T09:18:05.864Z,76.89
2023-03-11T09:20:38.301Z,76.43
2023-03-11T09:23:12.208Z,76.08
2023-03-11T09:25:44.026Z,76.44
2023-03-11T09:28:15.670Z,76.44
2023-03-11T09:30:47.253Z,75.75
2023-03-11T09:33:18.889Z,74.54
2023-03-11T09:35:50.628Z,74.36
2023-03-11T09:38:22.424Z,75.99
2023-03-11T09:41:38.247Z,76.09
2023-03-11T09:44:28.286Z,76.61
2023-03-11T09:47:06.173Z,77.41
2023-03-11T09:49:56.473Z,77.31
2023-03-11T09:52:41.176Z,77.51
2023-03-11T09:55:33.247Z,77.90
2023-03-11T09:58:16.771Z,76.24
2023-03-11T10:00:49.842Z,75.98
2023-03-11T10:03:43.058Z,76.43
2023-03-11T10:06:19.715Z,77.35
2023-03-11T10:09:12.864Z,77.99
2023-03-11T10:11:56.552Z,76.79
2023-03-11T10:14:58.778Z,76.39
2023-03-11T10:17:57.233Z,75.45
2023-03-11T10:21:09.758Z,76.59
2023-03-11T10:24:00.147Z,75.59
2023-03-11T10:26:42.276Z,74.73
2023-03-11T10:29:23.594Z,75.45
2023-03-11T10:32:20.201Z,74.27
2023-03-11T10:35:07.149Z,72.89
2023-03-11T10:37:49.939Z,71.61
2023-03-11T10:40:35.870Z,74.49
2023-03-11T10:43:14.150Z,73.27
2023-03-11T10:45:48.418Z,73.04
2023-03-11T10:48:22.215Z,73.96
2023-03-11T10:51:12.727Z,75.08
2023-03-11T10:53:52.229Z,74.73
2023-03-11T10:56:41.556Z,74.24
2023-03-11T10:59:53.727Z,75.36
2023-03-11T11:02:43.246Z,72.58
2023-03-11T11:05:51.525Z,72.32
2023-03-11T11:08:50.168Z,71.70
2023-03-11T11:11:32.995Z,69.55
2023-03-11T11:14:08.236Z,69.16
2023-03-11T11:16:43.609Z,70.51
2023-03-11T11:19:17.026Z,69.74
2023-03-11T11:21:50.759Z,68.90
2023-03-11T11:24:26.088Z,70.19
2023-03-11T11:27:05.285Z,68.93
2023-03-11T11:29:37.349Z,69.25
2023-03-11T11:32:19.643Z,70.31
2023-03-11T11:34:57.362Z,68.40
2023-03-11T11:37:31.998Z,67.31
2023-03-11T11:40:16.086Z,67.78
2023-03-11T11:42:56.393Z,65.47
2023-03-11T11:45:45.477Z,64.58
2023-03-11T11:48:34.510Z,67.30
2023-03-11T11:51:19.783Z,67.30
2023-03-11T11:54:00.558Z,66.26
2023-03-11T11:56:32.314Z,67.34
2023-03-11T11:59:13.918Z,66.28
2023-03-11T12:01:57.463Z,66.61
2023-03-11T12:04:34.239Z,66.91
2023-03-11T12:07:08.742Z,66.40
2023-03-11T12:09:58.368Z,66.11
2023-03-11T12:12:51.392Z,65.71
2023-03-11T12:15:40.691Z,65.93
2023-03-11T12:18:42.834Z,64.69
2023-03-11T12:21:24.013Z,64.59
2023-03-11T12:24:33.447Z,62.18
2023-03-11T12:27:36.077Z,64.47
2023-03-11T12:30:19.063Z,65.26
2023-03-11T12:33:12.883Z,63.59
2023-03-11T12:35:54.381Z,63.31
2023-03-11T12:38:33.275Z,63.67
2023-03-11T12:41:04.944Z,63.47
2023-03-11T12:43:44.710Z,64.64
2023-03-11T12:46:20.157Z,66.29
2023-03-11T12:49:13.787Z,65.73
2023-03-11T12:52:00.632Z,64.79
2023-03-11T12:54:39.060Z,63.30
2023-03-11T12:57:18.369Z,63.48
2023-03-11T13:00:06.077Z,63.74
2023-03-11T13:02:59.689Z,64.40
2023-03-11T13:06:08.672Z,63.82
2023-03-11T13:08:55.444Z,64.86
2023-03-11T13:11:35.538Z,64.71
2023-03-11T13:14:25.471Z,64.61
2023-03-11T13:17:23.852Z,63.25
2023-03-11T13:19:58.364Z,64.00
2023-03-11T13:23:04.651Z,64.02
2023-03-11T13:29:39.407Z,64.13
2023-03-11T13:32:53.897Z,63.60
2023-03-11T13:36:06.956Z,64.54
2023-03-11T13:39:00.922Z,63.32
2023-03-11T13:41:43.439Z,62.96
2023-03-11T13:44:37.138Z,62.67
2023-03-11T13:47:23.128Z,64.31
2023-03-11T13:50:16.291Z,63.27
2023-03-11T13:52:53.382Z,61.97
2023-03-11T13:55:34.867Z,62.03
2023-03-11T13:58:21.093Z,64.06
2023-03-11T14:00:59.945Z,64.59
2023-03-11T14:03:41.426Z,64.03
2023-03-11T14:06:19.849Z,63.57
2023-03-11T14:08:57.574Z,63.06
2023-03-11T14:11:29.706Z,64.39
2023-03-11T14:14:01.390Z,62.64
2023-03-11T14:16:37.841Z,64.41
2023-03-11T14:19:18.257Z,64.49
2023-03-11T14:21:51.677Z,64.07
2023-03-11T14:24:28.503Z,65.92
2023-03-11T14:27:07.069Z,66.58
2023-03-11T14:29:41.256Z,67.84
2023-03-11T14:32:35.485Z,68.37
2023-03-11T14:35:20.939Z,67.88
2023-03-11T14:37:52.515Z,68.65
2023-03-11T14:40:36.904Z,66.93
2023-03-11T14:43:11.664Z,68.36
2023-03-11T14:45:44.185Z,66.47
2023-03-11T14:48:39.836Z,67.77
2023-03-11T14:51:27.851Z,66.71
2023-03-11T14:54:07.149Z,65.88
2023-03-11T14:56:46.657Z,65.10
2023-03-11T14:59:28.136Z,65.66
2023-03-11T15:02:20.919Z,67.89
2023-03-11T15:04:59.333Z,65.49
2023-03-11T15:07:33.404Z,65.76
2023-03-11T15:10:18.492Z,64.57
2023-03-11T15:13:09.946Z,66.97
2023-03-11T15:15:42.147Z,65.47
2023-03-11T15:18:24.417Z,65.12
2023-03-11T15:21:22.109Z,66.37
2023-03-11T15:24:02.357Z,65.90
2023-03-11T15:27:12.341Z,67.20
2023-03-11T15:29:59.165Z,69.33
2023-03-11T15:32:42.866Z,66.85
2023-03-11T15:35:18.981Z,67.85
2023-03-11T15:38:19.935Z,66.63
2023-03-11T15:40:58.930Z,66.94
2023-03-11T15:43:35.167Z,66.41
2023-03-11T15:46:11.062Z,68.68
2023-03-11T15:48:47.443Z,68.91
2023-03-11T15:51:20.331Z,66.96
2023-03-11T15:53:52.048Z,66.64
2023-03-11T15:56:25.423Z,66.19
2023-03-11T15:58:57.155Z,66.79
2023-03-11T16:01:32.470Z,67.25
2023-03-11T16:04:13.518Z,66.12
2023-03-11T16:06:56.485Z,65.23
2023-03-11T16:09:34.816Z,66.90
2023-03-11T16:12:21.480Z,66.98
2023-03-11T16:14:53.190Z,66.87
2023-03-11T16:17:24.886Z,66.09
2023-03-11T16:20:00.988Z,66.75
2023-03-11T16:22:39.584Z,66.03
2023-03-11T16:25:28.024Z,66.95
2023-03-11T16:28:04.262Z,66.07
2023-03-11T16:30:38.478Z,66.31
2023-03-11T16:33:11.349Z,65.74
2023-03-11T16:35:43.264Z,66.09
2023-03-11T16:38:24.926Z,67.22
2023-03-11T16:41:02.513Z,66.47
2023-03-11T16:43:34.184Z,67.09
2023-03-11T16:46:10.536Z,68.03
2023-03-11T16:48:42.400Z,67.19
2023-03-11T16:51:16.758Z,66.45
2023-03-11T16:53:56.118Z,66.11
2023-03-11T16:56:31.502Z,67.68
2023-03-11T16:59:03.296Z,66.84
2023-03-11T17:01:37.336Z,66.95
2023-03-11T17:04:10.210Z,67.11
2023-03-11T17:06:55.393Z,67.63
2023-03-11T17:09:31.258Z,67.04
2023-03-11T17:12:19.065Z,68.65
2023-03-11T17:15:04.381Z,67.65
2023-03-11T17:17:39.136Z,67.44
2023-03-11T17:20:13.351Z,67.89
2023-03-11T17:22:51.130Z,66.99
2023-03-11T17:25:22.935Z,67.22
2023-03-11T17:28:00.338Z,68.02
2023-03-11T17:30:43.083Z,67.09
2023-03-11T17:33:23.585Z,68.30
2023-03-11T17:36:20.234Z,68.96
2023-03-11T17:38:55.116Z,68.06
2023-03-11T17:41:42.540Z,68.55
2023-03-11T17:44:50.915Z,67.41
2023-03-11T17:47:20.706Z,68.54
2023-03-11T17:50:06.376Z,67.80
2023-03-11T17:52:38.144Z,67.26
2023-03-11T17:55:24.834Z,67.98
2023-03-11T17:58:02.623Z,68.02
2023-03-11T18:00:34.490Z,66.89
2023-03-11T18:03:06.142Z,66.61
2023-03-11T18:05:40.973Z,66.99
2023-03-11T18:08:14.886Z,68.04
2023-03-11T18:11:19.051Z,68.17
2023-03-11T18:13:48.539Z,67.78
2023-03-11T18:16:26.923Z,67.71
2023-03-11T18:18:58.798Z,69.34
2023-03-11T18:21:37.799Z,69.31
2023-03-11T18:24:12.605Z,68.05
2023-03-11T18:26:44.324Z,69.71
2023-03-11T18:29:20.465Z,68.92
2023-03-11T18:32:01.496Z,68.05
2023-03-11T18:34:36.553Z,67.25
2023-03-11T18:37:11.368Z,66.58
2023-03-11T18:39:43.126Z,66.91
2023-03-11T18:42:15.045Z,66.19
2023-03-11T18:44:46.875Z,67.77
2023-03-11T18:47:18.667Z,67.58
2023-03-11T18:50:01.118Z,66.38
2023-03-11T18:52:37.141Z,67.88
2023-03-11T18:55:18.523Z,66.75
2023-03-11T18:57:55.648Z,66.02
2023-03-11T19:01:05.490Z,66.75
2023-03-11T19:03:53.794Z,66.25
2023-03-11T19:06:35.089Z,64.51
2023-03-11T19:09:25.574Z,66.79
2023-03-11T19:11:59.642Z,67.01
2023-03-11T19:14:35.998Z,67.48
2023-03-11T19:17:09.201Z,66.95
2023-03-11T19:19:40.888Z,69.03
2023-03-11T19:22:12.657Z,67.71
2023-03-11T19:24:44.354Z,69.12
2023-03-11T19:27:16.049Z,68.26
2023-03-11T19:29:47.849Z,67.49
2023-03-11T19:32:21.465Z,66.78
2023-03-11T19:34:54.361Z,65.54
2023-03-11T19:37:32.232Z,67.18
2023-03-11T19:40:04.315Z,66.42
2023-03-11T19:42:38.469Z,65.39
2023-03-11T19:45:11.121Z,67.48
2023-03-11T19:47:44.400Z,69.36
2023-03-11T19:50:32.615Z,70.19
2023-03-11T19:53:11.956Z,71.05
2023-03-11T19:55:57.421Z,69.84
2023-03-11T19:58:35.461Z,70.00
2023-03-11T20:01:09.764Z,68.97
2023-03-11T20:03:46.146Z,69.07
2023-03-11T20:06:30.487Z,68.22
2023-03-11T20:09:12.848Z,68.43
2023-03-11T20:11:52.258Z,67.42
2023-03-11T20:14:26.693Z,67.02
2023-03-11T20:16:59.892Z,66.73
2023-03-11T20:19:35.009Z,66.73
2023-03-11T20:22:20.121Z,66.82
2023-03-11T20:24:59.037Z,66.92
2023-03-11T20:27:30.829Z,67.79
2023-03-11T20:30:02.797Z,68.84
2023-03-11T20:32:34.661Z,67.11
2023-03-11T20:35:10.072Z,68.01
2023-03-11T20:37:45.044Z,67.94
2023-03-11T20:40:23.354Z,66.79
2023-03-11T20:43:00.660Z,67.26
2023-03-11T20:45:32.656Z,68.65
2023-03-11T20:48:18.108Z,69.04
2023-03-11T20:50:53.231Z,69.29
2023-03-11T20:53:27.768Z,68.07
2023-03-11T20:56:05.132Z,67.45
2023-03-11T20:58:37.618Z,68.00
2023-03-11T21:01:19.294Z,67.45
2023-03-11T21:03:53.744Z,68.14
2023-03-11T21:06:32.658Z,67.39
2023-03-11T21:09:08.459Z,67.09
2023-03-11T21:11:48.822Z,67.26
2023-03-11T21:14:22.578Z,67.16
2023-03-11T21:17:06.963Z,68.04
2023-03-11T21:19:38.971Z,68.17
2023-03-11T21:22:12.753Z,68.09
2023-03-11T21:24:45.577Z,68.73
2023-03-11T21:27:17.401Z,68.14
2023-03-11T21:29:52.204Z,67.63
2023-03-11T21:32:31.778Z,67.72
2023-03-11T21:35:13.883Z,68.84
2023-03-11T21:37:55.900Z,67.64
2023-03-11T21:40:32.436Z,66.89
2023-03-11T21:43:06.533Z,67.38
2023-03-11T21:45:38.343Z,69.13
2023-03-11T21:48:15.187Z,69.20
2023-03-11T21:50:54.909Z,68.56
2023-03-11T21:53:43.381Z,69.28
2023-03-11T21:56:22.840Z,70.16
2023-03-11T21:58:58.335Z,70.37
2023-03-11T22:01:32.665Z,69.51
2023-03-11T22:04:08.004Z,70.19
2023-03-11T22:06:47.032Z,71.43
2023-03-11T22:09:18.750Z,73.24
2023-03-11T22:11:52.752Z,70.94
2023-03-11T22:14:27.507Z,70.25
2023-03-11T22:17:02.512Z,69.47
2023-03-11T22:19:51.263Z,71.91
2023-03-11T22:22:23.206Z,75.52
2023-03-11T22:25:09.176Z,72.41
2023-03-11T22:28:01.208Z,72.77
2023-03-11T22:30:35.361Z,71.85
2023-03-11T22:33:11.907Z,72.54
2023-03-11T22:35:59.527Z,71.67
2023-03-11T22:38:35.310Z,70.22
2023-03-11T22:41:10.707Z,69.67
2023-03-11T22:43:43.508Z,68.96
2023-03-11T22:46:22.686Z,69.47
2023-03-11T22:48:54.632Z,73.26
2023-03-11T22:51:27.770Z,71.21
2023-03-11T22:53:59.645Z,70.68
2023-03-11T22:56:32.583Z,70.04
2023-03-11T22:59:18.369Z,69.57
2023-03-11T23:02:01.397Z,69.13
2023-03-11T23:04:48.059Z,70.43
2023-03-11T23:07:26.578Z,71.46
2023-03-11T23:10:15.448Z,71.56
2023-03-11T23:13:08.161Z,71.00
2023-03-11T23:15:42.107Z,70.08
2023-03-11T23:18:19.743Z,69.65
2023-03-11T23:21:10.357Z,69.88
2023-03-11T23:23:46.159Z,69.41
2023-03-11T23:26:20.143Z,68.88
2023-03-11T23:28:54.564Z,67.79
2023-03-11T23:31:32.883Z,68.01
2023-03-11T23:34:18.177Z,68.63
2023-03-11T23:36:53.998Z,69.11
2023-03-11T23:39:53.149Z,69.74
2023-03-11T23:42:37.671Z,69.35
2023-03-11T23:45:10.698Z,68.35
2023-03-11T23:47:53.570Z,68.40
2023-03-11T23:51:01.178Z,68.56
2023-03-11T23:53:39.339Z,68.75
2023-03-11T23:56:16.682Z,68.10
2023-03-11T23:58:53.227Z,67.74
